Item Display Status Serial CT Sensor

Mooring Depth: 1 m

 

Deployed Sensor

  • Serial Number: 12489
  • NDBC Property Number: 38947
  • Start Date: 10/28/2016 (13:31:42 Z)
  • End Date: Currently Active
Water Temperature [°C]     6 entries per hour
Showing data from 11/24/2017 (00:40:00 Z) to 11/23/2017 (00:00:01 Z)
Previous Next [ Day | 3-Days | 7-Days ]
First Last
Prev [ Day | 3-Days | 7-Days ] Next
First Last

Start Time:     :
End Time:     :     
Time (in GMT) :00 :50 :40 :30 :20 :10
Previous Next [ Day | 3-Days | 7-Days ]
First Last
Prev [ Day | 3-Days | 7-Days ] Next
First Last


123 => good data
MM => data is determined as missing
-- => data not received/configured
Back to Top Back to Top
11/24/2017 01:00 to 0:10 -- -- 25.561 25.565 25.569 25.559
11/24/2017 00:00 to 23:10 25.570 25.577 25.572 25.571 25.570 25.569
11/23/2017 23:00 to 22:10 25.584 25.580 25.582 25.582 25.580 25.573
11/23/2017 22:00 to 21:10 25.590 25.584 25.568 25.572 25.569 25.588
11/23/2017 21:00 to 20:10 25.569 25.568 25.556 25.555 25.551 25.573
11/23/2017 20:00 to 19:10 25.558 25.544 25.552 25.549 25.537 25.549
11/23/2017 19:00 to 18:10 25.524 25.516 25.508 25.510 25.505 25.525
11/23/2017 18:00 to 17:10 25.498 25.484 25.482 25.468 25.471 25.502
11/23/2017 17:00 to 16:10 25.478 25.471 25.460 25.457 25.449 25.476
11/23/2017 16:00 to 15:10 25.440 25.435 25.449 25.444 25.443 25.445
11/23/2017 15:00 to 14:10 25.443 25.450 25.451 25.455 25.449 25.440
11/23/2017 14:00 to 13:10 25.447 25.453 25.450 25.448 25.455 25.446
11/23/2017 13:00 to 12:10 25.457 25.455 25.457 25.460 25.462 25.458
11/23/2017 12:00 to 11:10 25.464 25.471 25.476 25.479 25.478 25.468
11/23/2017 11:00 to 10:10 25.474 25.480 25.487 25.483 25.486 25.476
11/23/2017 10:00 to 9:10 25.492 25.488 25.487 25.500 25.502 25.488
11/23/2017 09:00 to 8:10 25.499 25.501 25.500 25.498 25.495 25.503
11/23/2017 08:00 to 7:10 25.495 25.497 25.496 25.499 25.505 25.497
11/23/2017 07:00 to 6:10 25.506 25.508 25.508 25.503 25.512 25.506
11/23/2017 06:00 to 5:10 25.513 25.517 25.515 25.515 25.511 25.524
11/23/2017 05:00 to 4:10 25.508 25.514 25.511 25.521 25.524 25.516
11/23/2017 04:00 to 3:10 25.533 25.532 25.534 25.537 25.550 25.530
11/23/2017 03:00 to 2:10 25.551 25.559 25.571 25.572 25.576 25.557
11/23/2017 02:00 to 1:10 25.596 25.609 25.622 25.630 25.625 25.590
11/23/2017 01:00 to 0:10 25.618 25.616 25.630 25.635 25.638 25.614

 

 

 

Conductivity [S/m]     6 entries per hour
Showing data from 11/24/2017 (01:00:00 Z) to 11/23/2017 (00:00:01 Z)
Previous Next [ Day | 3-Days | 7-Days ]
First Last
Prev [ Day | 3-Days | 7-Days ] Next
First Last

Start Time:     :
End Time:     :     
Time (in GMT) :00 :50 :40 :30 :20 :10
Previous Next [ Day | 3-Days | 7-Days ]
First Last
Prev [ Day | 3-Days | 7-Days ] Next
First Last


123 => good data
MM => data is determined as missing
-- => data not received/configured
Back to Top Back to Top
11/24/2017 01:00 to 0:10 5.31516 5.31501 5.31463 5.31459 5.31568 5.31459
11/24/2017 00:00 to 23:10 5.31628 5.31674 5.31589 5.31710 5.31578 5.31536
11/23/2017 23:00 to 22:10 5.31722 5.31677 5.31745 5.31692 5.31774 5.31661
11/23/2017 22:00 to 21:10 5.31877 5.31934 5.31646 5.31593 5.31644 5.31758
11/23/2017 21:00 to 20:10 5.31259 5.31542 5.31516 5.31467 5.31383 5.31584
11/23/2017 20:00 to 19:10 5.31463 5.31366 5.31221 5.31407 5.31228 5.31494
11/23/2017 19:00 to 18:10 5.31264 5.30988 5.31047 5.31041 5.30861 5.31160
11/23/2017 18:00 to 17:10 5.30852 5.30698 5.30659 5.30576 5.30581 5.30951
11/23/2017 17:00 to 16:10 5.30615 5.30576 5.30471 5.30434 5.30337 5.30571
11/23/2017 16:00 to 15:10 5.30280 5.30220 5.30133 5.30315 5.30220 5.30315
11/23/2017 15:00 to 14:10 5.30267 5.30248 5.30324 5.30369 5.30389 5.30319
11/23/2017 14:00 to 13:10 5.30246 5.30374 5.30343 5.30284 5.30341 5.30294
11/23/2017 13:00 to 12:10 5.30447 5.30384 5.30355 5.30435 5.30459 5.30375
11/23/2017 12:00 to 11:10 5.30442 5.30501 5.30545 5.30572 5.30585 5.30500
11/23/2017 11:00 to 10:10 5.30543 5.30604 5.30676 5.30585 5.30580 5.30576
11/23/2017 10:00 to 9:10 5.30731 5.30704 5.30670 5.30776 5.30887 5.30668
11/23/2017 09:00 to 8:10 5.30870 5.30814 5.30830 5.30754 5.30770 5.30910
11/23/2017 08:00 to 7:10 5.30779 5.30697 5.30810 5.30834 5.30839 5.30808
11/23/2017 07:00 to 6:10 5.30858 5.30976 5.30897 5.30867 5.30970 5.30896
11/23/2017 06:00 to 5:10 5.31074 5.31033 5.30999 5.31050 5.30961 5.31071
11/23/2017 05:00 to 4:10 5.30885 5.30976 5.30898 5.31033 5.31090 5.31056
11/23/2017 04:00 to 3:10 5.31238 5.31213 5.31136 5.31231 5.31405 5.31188
11/23/2017 03:00 to 2:10 5.31335 5.31364 5.31531 5.31567 5.31664 5.31503
11/23/2017 02:00 to 1:10 5.31827 5.31914 5.32056 5.32040 5.32166 5.31672
11/23/2017 01:00 to 0:10 5.31996 5.32036 5.32112 5.32125 5.32350 5.32050

 

 

 

Salinity [psu]     6 entries per hour
Showing data from 11/24/2017 (00:40:00 Z) to 11/23/2017 (00:00:01 Z)
Previous Next [ Day | 3-Days | 7-Days ]
First Last
Prev [ Day | 3-Days | 7-Days ] Next
First Last

Start Time:     :
End Time:     :     
Time (in GMT) :00 :50 :40 :30 :20 :10
Previous Next [ Day | 3-Days | 7-Days ]
First Last
Prev [ Day | 3-Days | 7-Days ] Next
First Last


123 => good data
MM => data is determined as missing
-- => data not received/configured
Back to Top Back to Top
11/24/2017 01:00 to 0:10 -- -- 34.62 34.62 34.63 34.63
11/24/2017 00:00 to 23:10 34.63 34.63 34.63 34.64 34.63 34.62
11/23/2017 23:00 to 22:10 34.63 34.63 34.63 34.63 34.63 34.63
11/23/2017 22:00 to 21:10 34.63 34.64 34.63 34.63 34.63 34.63
11/23/2017 21:00 to 20:10 34.60 34.63 34.63 34.63 34.63 34.62
11/23/2017 20:00 to 19:10 34.63 34.63 34.61 34.63 34.63 34.64
11/23/2017 19:00 to 18:10 34.64 34.62 34.63 34.63 34.62 34.63
11/23/2017 18:00 to 17:10 34.63 34.63 34.63 34.63 34.63 34.63
11/23/2017 17:00 to 16:10 34.63 34.63 34.63 34.63 34.63 34.62
11/23/2017 16:00 to 15:10 34.63 34.63 34.61 34.63 34.62 34.63
11/23/2017 15:00 to 14:10 34.63 34.62 34.63 34.63 34.63 34.63
11/23/2017 14:00 to 13:10 34.62 34.63 34.63 34.62 34.62 34.63
11/23/2017 13:00 to 12:10 34.63 34.63 34.62 34.63 34.63 34.62
11/23/2017 12:00 to 11:10 34.62 34.62 34.62 34.62 34.62 34.62
11/23/2017 11:00 to 10:10 34.62 34.62 34.62 34.62 34.62 34.62
11/23/2017 10:00 to 9:10 34.62 34.62 34.62 34.62 34.63 34.62
11/23/2017 09:00 to 8:10 34.63 34.62 34.62 34.62 34.62 34.63
11/23/2017 08:00 to 7:10 34.62 34.62 34.63 34.63 34.62 34.63
11/23/2017 07:00 to 6:10 34.62 34.63 34.62 34.62 34.63 34.63
11/23/2017 06:00 to 5:10 34.63 34.63 34.63 34.63 34.63 34.62
11/23/2017 05:00 to 4:10 34.62 34.62 34.62 34.62 34.63 34.63
11/23/2017 04:00 to 3:10 34.63 34.63 34.62 34.63 34.63 34.63
11/23/2017 03:00 to 2:10 34.62 34.62 34.62 34.62 34.63 34.63
11/23/2017 02:00 to 1:10 34.62 34.62 34.62 34.61 34.63 34.62
11/23/2017 01:00 to 0:10 34.62 34.62 34.62 34.62 34.63 34.63